sensor_id;sensor_type;location;lat;lon;timestamp;P1;durP1;ratioP1;P2;durP2;ratioP2
9904;SDS011;4991;43.566;27.820;2023-03-12T00:00:30;3.03;;;1.80;;
9904;SDS011;4991;43.566;27.820;2023-03-12T00:02:57;3.00;;;1.27;;
9904;SDS011;4991;43.566;27.820;2023-03-12T00:05:23;1.77;;;1.30;;
9904;SDS011;4991;43.566;27.820;2023-03-12T00:07:50;4.43;;;1.10;;
9904;SDS011;4991;43.566;27.820;2023-03-12T00:10:16;6.53;;;2.47;;
9904;SDS011;4991;43.566;27.820;2023-03-12T00:12:43;8.70;;;1.37;;
9904;SDS011;4991;43.566;27.820;2023-03-12T00:15:08;6.23;;;1.70;;
9904;SDS011;4991;43.566;27.820;2023-03-12T00:17:34;4.40;;;1.50;;
9904;SDS011;4991;43.566;27.820;2023-03-12T00:20:00;3.67;;;1.63;;
9904;SDS011;4991;43.566;27.820;2023-03-12T00:22:26;3.70;;;1.40;;
9904;SDS011;4991;43.566;27.820;2023-03-12T00:24:52;3.90;;;1.30;;
9904;SDS011;4991;43.566;27.820;2023-03-12T00:27:20;2.23;;;1.07;;
9904;SDS011;4991;43.566;27.820;2023-03-12T00:29:46;4.70;;;1.50;;
9904;SDS011;4991;43.566;27.820;2023-03-12T00:32:13;4.03;;;1.83;;
9904;SDS011;4991;43.566;27.820;2023-03-12T00:34:39;1.83;;;1.30;;
9904;SDS011;4991;43.566;27.820;2023-03-12T00:37:05;2.93;;;1.50;;
9904;SDS011;4991;43.566;27.820;2023-03-12T00:39:32;4.07;;;1.27;;
9904;SDS011;4991;43.566;27.820;2023-03-12T00:41:58;4.50;;;1.47;;
9904;SDS011;4991;43.566;27.820;2023-03-12T00:44:24;7.30;;;1.60;;
9904;SDS011;4991;43.566;27.820;2023-03-12T00:46:49;3.10;;;1.50;;
9904;SDS011;4991;43.566;27.820;2023-03-12T00:49:15;1.63;;;1.30;;
9904;SDS011;4991;43.566;27.820;2023-03-12T00:51:41;3.47;;;1.73;;
9904;SDS011;4991;43.566;27.820;2023-03-12T00:54:07;2.60;;;1.53;;
9904;SDS011;4991;43.566;27.820;2023-03-12T00:56:33;6.60;;;1.50;;
9904;SDS011;4991;43.566;27.820;2023-03-12T00:58:59;2.80;;;1.50;;
9904;SDS011;4991;43.566;27.820;2023-03-12T01:01:24;1.47;;;1.10;;
9904;SDS011;4991;43.566;27.820;2023-03-12T01:03:51;3.90;;;1.50;;
9904;SDS011;4991;43.566;27.820;2023-03-12T01:06:18;2.53;;;1.77;;
9904;SDS011;4991;43.566;27.820;2023-03-12T01:08:44;3.27;;;1.47;;
9904;SDS011;4991;43.566;27.820;2023-03-12T01:11:17;8.07;;;2.90;;
9904;SDS011;4991;43.566;27.820;2023-03-12T01:13:43;7.47;;;1.60;;
9904;SDS011;4991;43.566;27.820;2023-03-12T01:16:09;5.50;;;1.83;;
9904;SDS011;4991;43.566;27.820;2023-03-12T01:18:34;2.47;;;1.73;;
9904;SDS011;4991;43.566;27.820;2023-03-12T01:21:00;5.47;;;1.83;;
9904;SDS011;4991;43.566;27.820;2023-03-12T01:23:26;5.60;;;1.80;;
9904;SDS011;4991;43.566;27.820;2023-03-12T01:25:52;4.30;;;1.80;;
9904;SDS011;4991;43.566;27.820;2023-03-12T01:28:20;9.10;;;2.40;;
9904;SDS011;4991;43.566;27.820;2023-03-12T01:30:47;2.60;;;1.60;;
9904;SDS011;4991;43.566;27.820;2023-03-12T01:33:12;4.60;;;2.17;;
9904;SDS011;4991;43.566;27.820;2023-03-12T01:35:38;4.40;;;1.97;;
9904;SDS011;4991;43.566;27.820;2023-03-12T01:38:12;9.80;;;1.90;;
9904;SDS011;4991;43.566;27.820;2023-03-12T01:40:39;7.33;;;2.20;;
9904;SDS011;4991;43.566;27.820;2023-03-12T01:43:26;2.10;;;1.40;;
9904;SDS011;4991;43.566;27.820;2023-03-12T01:49:02;11.73;;;2.30;;
9904;SDS011;4991;43.566;27.820;2023-03-12T01:51:41;4.93;;;2.37;;
9904;SDS011;4991;43.566;27.820;2023-03-12T01:57:13;3.77;;;2.40;;
9904;SDS011;4991;43.566;27.820;2023-03-12T01:59:43;5.37;;;2.77;;
9904;SDS011;4991;43.566;27.820;2023-03-12T02:02:31;3.63;;;1.87;;
9904;SDS011;4991;43.566;27.820;2023-03-12T02:05:02;4.93;;;2.40;;
9904;SDS011;4991;43.566;27.820;2023-03-12T02:07:34;6.47;;;2.70;;
9904;SDS011;4991;43.566;27.820;2023-03-12T02:10:00;7.83;;;2.97;;
9904;SDS011;4991;43.566;27.820;2023-03-12T02:12:27;7.50;;;2.57;;
9904;SDS011;4991;43.566;27.820;2023-03-12T02:14:53;4.20;;;2.83;;
9904;SDS011;4991;43.566;27.820;2023-03-12T02:17:19;6.40;;;2.97;;
9904;SDS011;4991;43.566;27.820;2023-03-12T02:22:33;5.87;;;2.67;;
9904;SDS011;4991;43.566;27.820;2023-03-12T02:27:56;3.13;;;2.77;;
9904;SDS011;4991;43.566;27.820;2023-03-12T02:30:24;6.60;;;3.57;;
9904;SDS011;4991;43.566;27.820;2023-03-12T02:32:51;5.90;;;3.40;;
9904;SDS011;4991;43.566;27.820;2023-03-12T02:35:18;5.67;;;3.30;;
9904;SDS011;4991;43.566;27.820;2023-03-12T02:37:48;4.87;;;3.43;;
9904;SDS011;4991;43.566;27.820;2023-03-12T02:40:26;7.50;;;3.40;;
9904;SDS011;4991;43.566;27.820;2023-03-12T02:42:59;6.03;;;3.37;;
9904;SDS011;4991;43.566;27.820;2023-03-12T02:45:28;8.17;;;3.77;;
9904;SDS011;4991;43.566;27.820;2023-03-12T02:47:54;5.47;;;3.43;;
9904;SDS011;4991;43.566;27.820;2023-03-12T02:50:19;4.67;;;2.97;;
9904;SDS011;4991;43.566;27.820;2023-03-12T02:52:45;7.83;;;3.67;;
9904;SDS011;4991;43.566;27.820;2023-03-12T02:55:11;5.80;;;4.13;;
9904;SDS011;4991;43.566;27.820;2023-03-12T02:57:36;8.23;;;4.07;;
9904;SDS011;4991;43.566;27.820;2023-03-12T03:00:04;5.73;;;3.30;;
9904;SDS011;4991;43.566;27.820;2023-03-12T03:02:31;5.67;;;3.40;;
9904;SDS011;4991;43.566;27.820;2023-03-12T03:04:57;5.30;;;3.40;;
9904;SDS011;4991;43.566;27.820;2023-03-12T03:07:23;7.03;;;2.90;;
9904;SDS011;4991;43.566;27.820;2023-03-12T03:09:49;6.60;;;3.27;;
9904;SDS011;4991;43.566;27.820;2023-03-12T03:12:15;9.80;;;3.80;;
9904;SDS011;4991;43.566;27.820;2023-03-12T03:14:40;7.43;;;4.00;;
9904;SDS011;4991;43.566;27.820;2023-03-12T03:17:06;4.97;;;3.53;;
9904;SDS011;4991;43.566;27.820;2023-03-12T03:19:31;11.03;;;4.37;;
9904;SDS011;4991;43.566;27.820;2023-03-12T03:21:57;8.97;;;3.80;;
9904;SDS011;4991;43.566;27.820;2023-03-12T03:24:23;5.30;;;3.87;;
9904;SDS011;4991;43.566;27.820;2023-03-12T03:26:48;4.73;;;3.50;;
9904;SDS011;4991;43.566;27.820;2023-03-12T03:29:14;3.97;;;3.30;;
9904;SDS011;4991;43.566;27.820;2023-03-12T03:31:41;8.83;;;3.93;;
9904;SDS011;4991;43.566;27.820;2023-03-12T03:34:06;4.83;;;2.53;;
9904;SDS011;4991;43.566;27.820;2023-03-12T03:36:32;9.53;;;3.70;;
9904;SDS011;4991;43.566;27.820;2023-03-12T03:38:57;8.13;;;3.77;;
9904;SDS011;4991;43.566;27.820;2023-03-12T03:41:23;9.17;;;3.83;;
9904;SDS011;4991;43.566;27.820;2023-03-12T03:43:50;6.80;;;4.73;;
9904;SDS011;4991;43.566;27.820;2023-03-12T03:46:15;7.63;;;3.77;;
9904;SDS011;4991;43.566;27.820;2023-03-12T03:48:41;5.67;;;3.43;;
9904;SDS011;4991;43.566;27.820;2023-03-12T03:51:08;6.03;;;3.80;;
9904;SDS011;4991;43.566;27.820;2023-03-12T03:53:34;6.60;;;3.50;;
9904;SDS011;4991;43.566;27.820;2023-03-12T03:56:07;4.43;;;3.60;;
9904;SDS011;4991;43.566;27.820;2023-03-12T03:58:33;7.40;;;3.73;;
9904;SDS011;4991;43.566;27.820;2023-03-12T04:00:59;10.70;;;4.27;;
9904;SDS011;4991;43.566;27.820;2023-03-12T04:03:25;6.37;;;4.03;;
9904;SDS011;4991;43.566;27.820;2023-03-12T04:05:58;9.80;;;4.20;;
9904;SDS011;4991;43.566;27.820;2023-03-12T04:08:26;8.70;;;3.90;;
9904;SDS011;4991;43.566;27.820;2023-03-12T04:10:53;7.73;;;4.03;;
9904;SDS011;4991;43.566;27.820;2023-03-12T04:13:20;7.17;;;4.13;;
9904;SDS011;4991;43.566;27.820;2023-03-12T04:15:50;5.93;;;3.73;;
9904;SDS011;4991;43.566;27.820;2023-03-12T04:18:17;5.70;;;4.20;;
9904;SDS011;4991;43.566;27.820;2023-03-12T04:20:43;7.40;;;4.37;;
9904;SDS011;4991;43.566;27.820;2023-03-12T04:23:09;5.57;;;3.50;;
9904;SDS011;4991;43.566;27.820;2023-03-12T04:25:34;7.53;;;3.90;;
9904;SDS011;4991;43.566;27.820;2023-03-12T04:28:01;10.37;;;4.13;;
9904;SDS011;4991;43.566;27.820;2023-03-12T04:30:26;6.10;;;4.13;;
9904;SDS011;4991;43.566;27.820;2023-03-12T04:32:52;10.20;;;4.63;;
9904;SDS011;4991;43.566;27.820;2023-03-12T04:35:18;5.30;;;3.73;;
9904;SDS011;4991;43.566;27.820;2023-03-12T04:37:44;6.37;;;3.67;;
9904;SDS011;4991;43.566;27.820;2023-03-12T04:40:10;5.70;;;3.90;;
9904;SDS011;4991;43.566;27.820;2023-03-12T04:42:37;6.33;;;3.50;;
9904;SDS011;4991;43.566;27.820;2023-03-12T04:45:04;7.70;;;4.30;;
9904;SDS011;4991;43.566;27.820;2023-03-12T04:47:31;11.77;;;4.57;;
9904;SDS011;4991;43.566;27.820;2023-03-12T04:49:57;9.07;;;3.80;;
9904;SDS011;4991;43.566;27.820;2023-03-12T04:52:23;7.53;;;4.27;;
9904;SDS011;4991;43.566;27.820;2023-03-12T04:54:49;10.13;;;4.53;;
9904;SDS011;4991;43.566;27.820;2023-03-12T04:57:15;7.17;;;4.03;;
9904;SDS011;4991;43.566;27.820;2023-03-12T04:59:41;5.90;;;4.17;;
9904;SDS011;4991;43.566;27.820;2023-03-12T05:02:06;7.97;;;4.83;;
9904;SDS011;4991;43.566;27.820;2023-03-12T05:04:32;7.70;;;4.40;;
9904;SDS011;4991;43.566;27.820;2023-03-12T05:06:58;7.63;;;3.90;;
9904;SDS011;4991;43.566;27.820;2023-03-12T05:09:23;9.47;;;4.30;;
9904;SDS011;4991;43.566;27.820;2023-03-12T05:11:49;8.03;;;4.27;;
9904;SDS011;4991;43.566;27.820;2023-03-12T05:14:15;8.07;;;4.30;;
9904;SDS011;4991;43.566;27.820;2023-03-12T05:16:40;12.90;;;3.80;;
9904;SDS011;4991;43.566;27.820;2023-03-12T05:19:06;5.90;;;3.93;;
9904;SDS011;4991;43.566;27.820;2023-03-12T05:21:32;5.77;;;3.83;;
9904;SDS011;4991;43.566;27.820;2023-03-12T05:23:58;9.47;;;4.00;;
9904;SDS011;4991;43.566;27.820;2023-03-12T05:26:25;4.33;;;3.90;;
9904;SDS011;4991;43.566;27.820;2023-03-12T05:28:53;5.50;;;3.50;;
9904;SDS011;4991;43.566;27.820;2023-03-12T05:31:18;11.60;;;4.10;;
9904;SDS011;4991;43.566;27.820;2023-03-12T05:33:45;10.97;;;4.10;;
9904;SDS011;4991;43.566;27.820;2023-03-12T05:36:11;5.40;;;3.87;;
9904;SDS011;4991;43.566;27.820;2023-03-12T05:38:39;5.60;;;3.90;;
9904;SDS011;4991;43.566;27.820;2023-03-12T05:41:05;7.33;;;3.90;;
9904;SDS011;4991;43.566;27.820;2023-03-12T05:43:31;7.07;;;2.80;;
9904;SDS011;4991;43.566;27.820;2023-03-12T05:45:58;5.13;;;3.03;;
9904;SDS011;4991;43.566;27.820;2023-03-12T05:48:25;8.57;;;4.27;;
9904;SDS011;4991;43.566;27.820;2023-03-12T05:50:51;4.30;;;3.67;;
9904;SDS011;4991;43.566;27.820;2023-03-12T05:53:16;8.53;;;3.77;;
9904;SDS011;4991;43.566;27.820;2023-03-12T05:55:42;6.07;;;3.60;;
9904;SDS011;4991;43.566;27.820;2023-03-12T05:58:08;4.80;;;3.87;;
9904;SDS011;4991;43.566;27.820;2023-03-12T06:00:34;8.33;;;3.80;;
9904;SDS011;4991;43.566;27.820;2023-03-12T06:03:03;5.10;;;4.10;;
9904;SDS011;4991;43.566;27.820;2023-03-12T06:05:30;7.63;;;3.90;;
9904;SDS011;4991;43.566;27.820;2023-03-12T06:07:57;4.40;;;3.80;;
9904;SDS011;4991;43.566;27.820;2023-03-12T06:10:23;7.30;;;3.33;;
9904;SDS011;4991;43.566;27.820;2023-03-12T06:12:48;3.63;;;2.73;;
9904;SDS011;4991;43.566;27.820;2023-03-12T06:15:14;4.00;;;3.27;;
9904;SDS011;4991;43.566;27.820;2023-03-12T06:17:39;7.70;;;3.13;;
9904;SDS011;4991;43.566;27.820;2023-03-12T06:20:05;4.70;;;3.50;;
9904;SDS011;4991;43.566;27.820;2023-03-12T06:22:32;6.50;;;3.50;;
9904;SDS011;4991;43.566;27.820;2023-03-12T06:24:58;7.17;;;3.67;;
9904;SDS011;4991;43.566;27.820;2023-03-12T06:27:24;3.33;;;2.10;;
9904;SDS011;4991;43.566;27.820;2023-03-12T06:29:49;9.40;;;3.50;;
9904;SDS011;4991;43.566;27.820;2023-03-12T06:32:15;7.60;;;3.87;;
9904;SDS011;4991;43.566;27.820;2023-03-12T06:34:42;4.37;;;2.60;;
9904;SDS011;4991;43.566;27.820;2023-03-12T06:37:08;6.57;;;3.60;;
9904;SDS011;4991;43.566;27.820;2023-03-12T06:39:34;3.73;;;2.93;;
9904;SDS011;4991;43.566;27.820;2023-03-12T06:42:00;5.83;;;3.90;;
9904;SDS011;4991;43.566;27.820;2023-03-12T06:44:25;7.50;;;3.40;;
9904;SDS011;4991;43.566;27.820;2023-03-12T06:46:51;5.50;;;3.10;;
9904;SDS011;4991;43.566;27.820;2023-03-12T06:49:17;13.00;;;3.30;;
9904;SDS011;4991;43.566;27.820;2023-03-12T06:51:43;6.83;;;3.80;;
9904;SDS011;4991;43.566;27.820;2023-03-12T06:54:09;5.43;;;3.20;;
9904;SDS011;4991;43.566;27.820;2023-03-12T06:56:34;7.27;;;3.47;;
9904;SDS011;4991;43.566;27.820;2023-03-12T06:59:00;7.90;;;4.43;;
9904;SDS011;4991;43.566;27.820;2023-03-12T07:01:25;3.83;;;3.40;;
9904;SDS011;4991;43.566;27.820;2023-03-12T07:03:51;5.10;;;3.60;;
9904;SDS011;4991;43.566;27.820;2023-03-12T07:06:18;7.27;;;3.40;;
9904;SDS011;4991;43.566;27.820;2023-03-12T07:08:45;5.37;;;3.93;;
9904;SDS011;4991;43.566;27.820;2023-03-12T07:11:11;4.90;;;3.17;;
9904;SDS011;4991;43.566;27.820;2023-03-12T07:13:37;7.33;;;3.27;;
9904;SDS011;4991;43.566;27.820;2023-03-12T07:16:03;5.40;;;2.10;;
9904;SDS011;4991;43.566;27.820;2023-03-12T07:18:29;5.93;;;3.00;;
9904;SDS011;4991;43.566;27.820;2023-03-12T07:20:55;3.10;;;2.07;;
9904;SDS011;4991;43.566;27.820;2023-03-12T07:23:21;3.83;;;2.60;;
9904;SDS011;4991;43.566;27.820;2023-03-12T07:25:47;5.30;;;3.77;;
9904;SDS011;4991;43.566;27.820;2023-03-12T07:28:13;6.43;;;2.07;;
9904;SDS011;4991;43.566;27.820;2023-03-12T07:30:39;7.47;;;3.37;;
9904;SDS011;4991;43.566;27.820;2023-03-12T07:33:06;3.87;;;3.47;;
9904;SDS011;4991;43.566;27.820;2023-03-12T07:35:34;9.13;;;3.67;;
9904;SDS011;4991;43.566;27.820;2023-03-12T07:38:02;5.40;;;2.70;;
9904;SDS011;4991;43.566;27.820;2023-03-12T07:40:28;5.47;;;2.90;;
9904;SDS011;4991;43.566;27.820;2023-03-12T07:42:54;3.67;;;2.93;;
9904;SDS011;4991;43.566;27.820;2023-03-12T07:45:20;5.63;;;3.33;;
9904;SDS011;4991;43.566;27.820;2023-03-12T07:47:46;3.90;;;2.87;;
9904;SDS011;4991;43.566;27.820;2023-03-12T07:50:11;3.77;;;2.73;;
9904;SDS011;4991;43.566;27.820;2023-03-12T07:52:38;2.97;;;2.17;;
9904;SDS011;4991;43.566;27.820;2023-03-12T07:55:04;10.13;;;3.27;;
9904;SDS011;4991;43.566;27.820;2023-03-12T07:57:31;7.83;;;3.20;;
9904;SDS011;4991;43.566;27.820;2023-03-12T07:59:56;7.67;;;3.20;;
9904;SDS011;4991;43.566;27.820;2023-03-12T08:02:22;4.73;;;3.10;;
9904;SDS011;4991;43.566;27.820;2023-03-12T08:04:47;4.17;;;2.70;;
9904;SDS011;4991;43.566;27.820;2023-03-12T08:07:13;4.43;;;3.10;;
9904;SDS011;4991;43.566;27.820;2023-03-12T08:09:39;9.37;;;3.03;;
9904;SDS011;4991;43.566;27.820;2023-03-12T08:12:05;11.70;;;3.70;;
9904;SDS011;4991;43.566;27.820;2023-03-12T08:14:33;7.63;;;3.13;;
9904;SDS011;4991;43.566;27.820;2023-03-12T08:17:00;7.07;;;2.60;;
9904;SDS011;4991;43.566;27.820;2023-03-12T08:19:26;5.47;;;3.43;;
9904;SDS011;4991;43.566;27.820;2023-03-12T08:21:52;6.33;;;3.17;;
9904;SDS011;4991;43.566;27.820;2023-03-12T08:24:19;9.50;;;2.93;;
9904;SDS011;4991;43.566;27.820;2023-03-12T08:26:45;4.00;;;2.70;;
9904;SDS011;4991;43.566;27.820;2023-03-12T08:29:11;7.17;;;3.27;;
9904;SDS011;4991;43.566;27.820;2023-03-12T08:31:37;9.70;;;3.57;;
9904;SDS011;4991;43.566;27.820;2023-03-12T08:34:02;6.50;;;3.13;;
9904;SDS011;4991;43.566;27.820;2023-03-12T08:36:28;4.90;;;3.07;;
9904;SDS011;4991;43.566;27.820;2023-03-12T08:38:54;8.97;;;3.10;;
9904;SDS011;4991;43.566;27.820;2023-03-12T08:41:20;6.63;;;3.90;;
9904;SDS011;4991;43.566;27.820;2023-03-12T08:43:46;4.47;;;3.30;;
9904;SDS011;4991;43.566;27.820;2023-03-12T08:46:11;3.10;;;2.03;;
9904;SDS011;4991;43.566;27.820;2023-03-12T08:48:37;3.03;;;2.53;;
9904;SDS011;4991;43.566;27.820;2023-03-12T08:51:03;3.23;;;1.97;;
9904;SDS011;4991;43.566;27.820;2023-03-12T08:53:32;4.40;;;2.47;;
9904;SDS011;4991;43.566;27.820;2023-03-12T08:55:59;6.43;;;3.50;;
9904;SDS011;4991;43.566;27.820;2023-03-12T08:58:26;7.57;;;3.47;;
9904;SDS011;4991;43.566;27.820;2023-03-12T09:00:52;8.30;;;3.20;;
9904;SDS011;4991;43.566;27.820;2023-03-12T09:03:19;4.63;;;3.10;;
9904;SDS011;4991;43.566;27.820;2023-03-12T09:05:46;5.33;;;2.90;;
9904;SDS011;4991;43.566;27.820;2023-03-12T09:08:12;4.87;;;2.93;;
9904;SDS011;4991;43.566;27.820;2023-03-12T09:10:39;4.73;;;3.10;;
9904;SDS011;4991;43.566;27.820;2023-03-12T09:13:05;8.27;;;3.20;;
9904;SDS011;4991;43.566;27.820;2023-03-12T09:15:32;3.63;;;2.80;;
9904;SDS011;4991;43.566;27.820;2023-03-12T09:17:58;5.80;;;3.20;;
9904;SDS011;4991;43.566;27.820;2023-03-12T09:20:23;7.13;;;2.90;;
9904;SDS011;4991;43.566;27.820;2023-03-12T09:22:49;5.93;;;2.80;;
9904;SDS011;4991;43.566;27.820;2023-03-12T09:25:15;11.70;;;4.43;;
9904;SDS011;4991;43.566;27.820;2023-03-12T09:27:42;7.03;;;3.70;;
9904;SDS011;4991;43.566;27.820;2023-03-12T09:30:13;8.70;;;4.63;;
9904;SDS011;4991;43.566;27.820;2023-03-12T09:32:42;5.80;;;3.97;;
9904;SDS011;4991;43.566;27.820;2023-03-12T09:35:11;4.83;;;3.20;;
9904;SDS011;4991;43.566;27.820;2023-03-12T09:37:38;6.13;;;3.37;;
9904;SDS011;4991;43.566;27.820;2023-03-12T09:40:04;5.80;;;3.37;;
9904;SDS011;4991;43.566;27.820;2023-03-12T09:42:39;9.83;;;3.17;;
9904;SDS011;4991;43.566;27.820;2023-03-12T09:45:12;4.27;;;3.40;;
9904;SDS011;4991;43.566;27.820;2023-03-12T09:47:46;5.77;;;3.53;;
9904;SDS011;4991;43.566;27.820;2023-03-12T09:55:22;3.07;;;2.47;;
9904;SDS011;4991;43.566;27.820;2023-03-12T09:57:49;3.57;;;2.80;;
9904;SDS011;4991;43.566;27.820;2023-03-12T10:00:18;5.70;;;3.33;;
9904;SDS011;4991;43.566;27.820;2023-03-12T10:05:16;3.93;;;2.77;;
9904;SDS011;4991;43.566;27.820;2023-03-12T10:07:56;8.97;;;3.57;;
9904;SDS011;4991;43.566;27.820;2023-03-12T10:24:34;5.43;;;4.90;;
9904;SDS011;4991;43.566;27.820;2023-03-12T10:27:12;5.57;;;5.07;;
9904;SDS011;4991;43.566;27.820;2023-03-12T10:29:40;5.07;;;3.53;;
9904;SDS011;4991;43.566;27.820;2023-03-12T10:32:23;7.70;;;4.33;;
9904;SDS011;4991;43.566;27.820;2023-03-12T10:34:58;5.40;;;4.77;;
9904;SDS011;4991;43.566;27.820;2023-03-12T10:37:32;7.47;;;3.90;;
9904;SDS011;4991;43.566;27.820;2023-03-12T10:40:04;7.77;;;4.13;;
9904;SDS011;4991;43.566;27.820;2023-03-12T10:42:30;6.93;;;5.20;;
9904;SDS011;4991;43.566;27.820;2023-03-12T10:47:37;7.30;;;5.50;;
9904;SDS011;4991;43.566;27.820;2023-03-12T10:50:17;9.37;;;6.20;;
9904;SDS011;4991;43.566;27.820;2023-03-12T10:52:43;7.50;;;4.93;;
9904;SDS011;4991;43.566;27.820;2023-03-12T10:55:24;6.57;;;4.40;;
9904;SDS011;4991;43.566;27.820;2023-03-12T10:57:53;6.13;;;4.70;;
9904;SDS011;4991;43.566;27.820;2023-03-12T11:00:23;6.33;;;4.67;;
9904;SDS011;4991;43.566;27.820;2023-03-12T11:03:04;5.57;;;4.27;;
9904;SDS011;4991;43.566;27.820;2023-03-12T11:05:32;5.43;;;4.13;;
9904;SDS011;4991;43.566;27.820;2023-03-12T11:08:00;7.33;;;4.67;;
9904;SDS011;4991;43.566;27.820;2023-03-12T11:10:41;10.87;;;6.77;;
9904;SDS011;4991;43.566;27.820;2023-03-12T11:16:02;9.03;;;6.13;;
9904;SDS011;4991;43.566;27.820;2023-03-12T11:18:34;6.77;;;5.50;;
9904;SDS011;4991;43.566;27.820;2023-03-12T11:23:36;5.17;;;4.20;;
9904;SDS011;4991;43.566;27.820;2023-03-12T11:26:18;4.20;;;3.03;;
9904;SDS011;4991;43.566;27.820;2023-03-12T11:28:48;8.43;;;4.17;;
9904;SDS011;4991;43.566;27.820;2023-03-12T11:34:05;5.33;;;4.07;;
9904;SDS011;4991;43.566;27.820;2023-03-12T11:42:15;5.90;;;4.50;;
9904;SDS011;4991;43.566;27.820;2023-03-12T11:47:26;6.87;;;4.77;;
9904;SDS011;4991;43.566;27.820;2023-03-12T12:01:03;4.77;;;4.27;;
9904;SDS011;4991;43.566;27.820;2023-03-12T12:06:23;13.33;;;6.10;;
9904;SDS011;4991;43.566;27.820;2023-03-12T12:12:08;4.87;;;4.23;;
9904;SDS011;4991;43.566;27.820;2023-03-12T12:14:58;6.60;;;4.07;;
9904;SDS011;4991;43.566;27.820;2023-03-12T12:17:56;4.53;;;4.03;;
9904;SDS011;4991;43.566;27.820;2023-03-12T12:28:44;10.30;;;6.43;;
9904;SDS011;4991;43.566;27.820;2023-03-12T12:31:24;5.17;;;3.97;;
9904;SDS011;4991;43.566;27.820;2023-03-12T12:36:43;15.03;;;9.23;;
9904;SDS011;4991;43.566;27.820;2023-03-12T12:39:15;5.80;;;3.27;;
9904;SDS011;4991;43.566;27.820;2023-03-12T12:41:50;5.73;;;4.00;;
9904;SDS011;4991;43.566;27.820;2023-03-12T12:44:23;6.60;;;4.60;;
9904;SDS011;4991;43.566;27.820;2023-03-12T12:46:57;8.77;;;4.77;;
9904;SDS011;4991;43.566;27.820;2023-03-12T12:52:38;9.70;;;5.23;;
9904;SDS011;4991;43.566;27.820;2023-03-12T12:55:14;11.13;;;5.43;;
9904;SDS011;4991;43.566;27.820;2023-03-12T13:03:09;6.87;;;4.10;;
9904;SDS011;4991;43.566;27.820;2023-03-12T13:08:33;5.97;;;4.37;;
9904;SDS011;4991;43.566;27.820;2023-03-12T13:14:33;7.17;;;4.70;;
9904;SDS011;4991;43.566;27.820;2023-03-12T13:29:45;7.10;;;3.67;;
9904;SDS011;4991;43.566;27.820;2023-03-12T13:34:58;7.97;;;4.50;;
9904;SDS011;4991;43.566;27.820;2023-03-12T13:38:09;6.80;;;3.60;;
9904;SDS011;4991;43.566;27.820;2023-03-12T13:40:35;3.73;;;3.10;;
9904;SDS011;4991;43.566;27.820;2023-03-12T13:46:20;7.63;;;5.80;;
9904;SDS011;4991;43.566;27.820;2023-03-12T13:48:46;5.27;;;4.30;;
9904;SDS011;4991;43.566;27.820;2023-03-12T13:51:17;5.20;;;3.80;;
9904;SDS011;4991;43.566;27.820;2023-03-12T13:53:46;9.50;;;3.83;;
9904;SDS011;4991;43.566;27.820;2023-03-12T13:56:17;5.53;;;3.63;;
9904;SDS011;4991;43.566;27.820;2023-03-12T13:59:03;7.07;;;4.93;;
9904;SDS011;4991;43.566;27.820;2023-03-12T14:01:34;10.03;;;4.90;;
9904;SDS011;4991;43.566;27.820;2023-03-12T14:04:06;7.27;;;5.00;;
9904;SDS011;4991;43.566;27.820;2023-03-12T14:06:46;11.03;;;4.50;;
9904;SDS011;4991;43.566;27.820;2023-03-12T14:17:42;7.40;;;5.27;;
9904;SDS011;4991;43.566;27.820;2023-03-12T14:20:18;6.17;;;4.03;;
9904;SDS011;4991;43.566;27.820;2023-03-12T14:22:48;12.30;;;6.60;;
9904;SDS011;4991;43.566;27.820;2023-03-12T14:25:37;7.70;;;5.47;;
9904;SDS011;4991;43.566;27.820;2023-03-12T14:28:24;9.23;;;6.03;;
9904;SDS011;4991;43.566;27.820;2023-03-12T14:30:58;12.07;;;7.30;;
9904;SDS011;4991;43.566;27.820;2023-03-12T14:33:35;6.60;;;5.23;;
9904;SDS011;4991;43.566;27.820;2023-03-12T14:36:15;5.33;;;4.23;;
9904;SDS011;4991;43.566;27.820;2023-03-12T14:38:45;4.97;;;4.20;;
9904;SDS011;4991;43.566;27.820;2023-03-12T14:43:39;5.30;;;4.53;;
9904;SDS011;4991;43.566;27.820;2023-03-12T14:46:16;6.70;;;4.30;;
9904;SDS011;4991;43.566;27.820;2023-03-12T14:48:47;11.43;;;6.40;;
9904;SDS011;4991;43.566;27.820;2023-03-12T14:51:24;10.23;;;5.47;;
9904;SDS011;4991;43.566;27.820;2023-03-12T14:53:55;9.87;;;6.70;;
9904;SDS011;4991;43.566;27.820;2023-03-12T14:56:32;10.70;;;7.53;;
9904;SDS011;4991;43.566;27.820;2023-03-12T14:59:03;10.73;;;7.17;;
9904;SDS011;4991;43.566;27.820;2023-03-12T15:01:45;9.07;;;5.70;;
9904;SDS011;4991;43.566;27.820;2023-03-12T15:04:13;11.27;;;8.07;;
9904;SDS011;4991;43.566;27.820;2023-03-12T15:06:53;11.07;;;8.13;;
9904;SDS011;4991;43.566;27.820;2023-03-12T15:09:32;8.57;;;5.20;;
9904;SDS011;4991;43.566;27.820;2023-03-12T15:12:01;11.00;;;5.97;;
9904;SDS011;4991;43.566;27.820;2023-03-12T15:14:33;7.60;;;5.17;;
9904;SDS011;4991;43.566;27.820;2023-03-12T15:17:03;7.80;;;5.93;;
9904;SDS011;4991;43.566;27.820;2023-03-12T15:19:39;7.53;;;5.43;;
9904;SDS011;4991;43.566;27.820;2023-03-12T15:22:06;6.77;;;5.07;;
9904;SDS011;4991;43.566;27.820;2023-03-12T15:24:38;6.23;;;4.70;;
9904;SDS011;4991;43.566;27.820;2023-03-12T15:29:48;9.97;;;5.10;;
9904;SDS011;4991;43.566;27.820;2023-03-12T15:32:17;5.77;;;4.30;;
9904;SDS011;4991;43.566;27.820;2023-03-12T15:34:49;6.33;;;4.03;;
9904;SDS011;4991;43.566;27.820;2023-03-12T15:42:46;5.43;;;4.13;;
9904;SDS011;4991;43.566;27.820;2023-03-12T15:45:33;5.53;;;4.47;;
9904;SDS011;4991;43.566;27.820;2023-03-12T15:48:01;8.27;;;5.67;;
9904;SDS011;4991;43.566;27.820;2023-03-12T15:50:36;11.43;;;7.50;;
9904;SDS011;4991;43.566;27.820;2023-03-12T15:53:21;9.23;;;6.50;;
9904;SDS011;4991;43.566;27.820;2023-03-12T15:55:54;10.90;;;7.50;;
9904;SDS011;4991;43.566;27.820;2023-03-12T15:58:30;11.33;;;7.90;;
9904;SDS011;4991;43.566;27.820;2023-03-12T16:01:13;15.43;;;9.50;;
9904;SDS011;4991;43.566;27.820;2023-03-12T16:03:41;12.57;;;7.87;;
9904;SDS011;4991;43.566;27.820;2023-03-12T16:06:21;10.57;;;6.27;;
9904;SDS011;4991;43.566;27.820;2023-03-12T16:08:50;8.43;;;4.73;;
9904;SDS011;4991;43.566;27.820;2023-03-12T16:11:21;9.40;;;5.67;;
9904;SDS011;4991;43.566;27.820;2023-03-12T16:13:50;8.17;;;5.03;;
9904;SDS011;4991;43.566;27.820;2023-03-12T16:16:19;7.00;;;5.07;;
9904;SDS011;4991;43.566;27.820;2023-03-12T16:18:45;9.30;;;5.10;;
9904;SDS011;4991;43.566;27.820;2023-03-12T16:21:10;7.47;;;5.33;;
9904;SDS011;4991;43.566;27.820;2023-03-12T16:23:36;12.00;;;6.23;;
9904;SDS011;4991;43.566;27.820;2023-03-12T16:26:02;8.93;;;6.57;;
9904;SDS011;4991;43.566;27.820;2023-03-12T16:28:29;14.13;;;7.43;;
9904;SDS011;4991;43.566;27.820;2023-03-12T16:30:55;17.33;;;8.20;;
9904;SDS011;4991;43.566;27.820;2023-03-12T16:33:22;16.07;;;9.53;;
9904;SDS011;4991;43.566;27.820;2023-03-12T16:35:48;14.70;;;10.00;;
9904;SDS011;4991;43.566;27.820;2023-03-12T16:38:14;8.03;;;5.53;;
9904;SDS011;4991;43.566;27.820;2023-03-12T16:40:43;10.63;;;7.90;;
9904;SDS011;4991;43.566;27.820;2023-03-12T16:43:30;9.30;;;5.50;;
9904;SDS011;4991;43.566;27.820;2023-03-12T16:45:59;7.67;;;5.00;;
9904;SDS011;4991;43.566;27.820;2023-03-12T16:48:25;9.67;;;6.57;;
9904;SDS011;4991;43.566;27.820;2023-03-12T16:50:54;8.80;;;6.53;;
9904;SDS011;4991;43.566;27.820;2023-03-12T16:53:21;10.27;;;5.73;;
9904;SDS011;4991;43.566;27.820;2023-03-12T16:55:49;8.77;;;6.47;;
9904;SDS011;4991;43.566;27.820;2023-03-12T16:58:17;11.30;;;5.17;;
9904;SDS011;4991;43.566;27.820;2023-03-12T17:00:45;8.47;;;5.80;;
9904;SDS011;4991;43.566;27.820;2023-03-12T17:03:15;11.97;;;6.97;;
9904;SDS011;4991;43.566;27.820;2023-03-12T17:05:54;8.27;;;5.10;;
9904;SDS011;4991;43.566;27.820;2023-03-12T17:08:20;9.50;;;5.37;;
9904;SDS011;4991;43.566;27.820;2023-03-12T17:10:45;8.47;;;6.77;;
9904;SDS011;4991;43.566;27.820;2023-03-12T17:13:18;15.83;;;9.80;;
9904;SDS011;4991;43.566;27.820;2023-03-12T17:15:47;15.47;;;8.50;;
9904;SDS011;4991;43.566;27.820;2023-03-12T17:18:13;16.13;;;7.30;;
9904;SDS011;4991;43.566;27.820;2023-03-12T17:20:40;7.53;;;5.50;;
9904;SDS011;4991;43.566;27.820;2023-03-12T17:23:06;7.80;;;5.77;;